Aviation Digital Data Service (ADDS)

Output produced by METARs form (1429 UTC 24 August 2019)
found at http://www.aviationweather.gov/metar/data/
 
METAR text: ETNT 241420Z 12009KT 9999 28/11 Q1022 BLU+
Conditions at: ETNT (WITTMUNDHAVEN(GA, DE) observed 1420 UTC 24 August 2019
Temperature: 28.0°C (82°F)
Dewpoint: 11.0°C (52°F) [RH = 35%]
Pressure (altimeter): 30.18 inches Hg (1022.0 mb)
Winds: from the ESE (120 degrees) at 10 MPH (9 knots; 4.6 m/s)
Visibility: 6 or more miles (10+ km)
Ceiling: unknown
Clouds: missing
Weather: no significant weather observed at this time

METAR text: ETNT 241320Z 10010KT 9999 28/10 Q1022 BLU+
Conditions at: ETNT (WITTMUNDHAVEN(GA, DE) observed 1320 UTC 24 August 2019
Temperature: 28.0°C (82°F)
Dewpoint: 10.0°C (50°F) [RH = 32%]
Pressure (altimeter): 30.18 inches Hg (1022.0 mb)
Winds: from the E (100 degrees) at 12 MPH (10 knots; 5.1 m/s)
Visibility: 6 or more miles (10+ km)
Ceiling: unknown
Clouds: missing
Weather: no significant weather observed at this time

METAR text: ETNT 241220Z 11010KT 9999 28/12 Q1022 BLU+
Conditions at: ETNT (WITTMUNDHAVEN(GA, DE) observed 1220 UTC 24 August 2019
Temperature: 28.0°C (82°F)
Dewpoint: 12.0°C (54°F) [RH = 37%]
Pressure (altimeter): 30.18 inches Hg (1022.0 mb)
Winds: from the ESE (110 degrees) at 12 MPH (10 knots; 5.1 m/s)
Visibility: 6 or more miles (10+ km)
Ceiling: unknown
Clouds: missing
Weather: no significant weather observed at this time

METAR text: ETNT 241120Z 11008KT 9999 27/15 Q1023 BLU+
Conditions at: ETNT (WITTMUNDHAVEN(GA, DE) observed 1120 UTC 24 August 2019
Temperature: 27.0°C (81°F)
Dewpoint: 15.0°C (59°F) [RH = 48%]
Pressure (altimeter): 30.21 inches Hg (1023.0 mb)
Winds: from the ESE (110 degrees) at 9 MPH (8 knots; 4.1 m/s)
Visibility: 6 or more miles (10+ km)
Ceiling: unknown
Clouds: missing
Weather: no significant weather observed at this time

METAR text: ETNT 241020Z 11008KT 9999 25/14 Q1023 BLU+
Conditions at: ETNT (WITTMUNDHAVEN(GA, DE) observed 1020 UTC 24 August 2019
Temperature: 25.0°C (77°F)
Dewpoint: 14.0°C (57°F) [RH = 50%]
Pressure (altimeter): 30.21 inches Hg (1023.0 mb)
Winds: from the ESE (110 degrees) at 9 MPH (8 knots; 4.1 m/s)
Visibility: 6 or more miles (10+ km)
Ceiling: unknown
Clouds: missing
Weather: no significant weather observed at this time

METAR text: ETNT 240920Z 11008KT 9999 24/13 Q1024 BLU+
Conditions at: ETNT (WITTMUNDHAVEN(GA, DE) observed 0920 UTC 24 August 2019
Temperature: 24.0°C (75°F)
Dewpoint: 13.0°C (55°F) [RH = 50%]
Pressure (altimeter): 30.24 inches Hg (1024.0 mb)
Winds: from the ESE (110 degrees) at 9 MPH (8 knots; 4.1 m/s)
Visibility: 6 or more miles (10+ km)
Ceiling: unknown
Clouds: missing
Weather: no significant weather observed at this time

METAR text: ETNT 240820Z 10008KT 9999 21/13 Q1024 BLU+
Conditions at: ETNT (WITTMUNDHAVEN(GA, DE) observed 0820 UTC 24 August 2019
Temperature: 21.0°C (70°F)
Dewpoint: 13.0°C (55°F) [RH = 60%]
Pressure (altimeter): 30.24 inches Hg (1024.0 mb)
Winds: from the E (100 degrees) at 9 MPH (8 knots; 4.1 m/s)
Visibility: 6 or more miles (10+ km)
Ceiling: unknown
Clouds: missing
Weather: no significant weather observed at this time

METAR text: ETNT 240720Z 09007KT 9999 19/14 Q1024 BLU+
Conditions at: ETNT (WITTMUNDHAVEN(GA, DE) observed 0720 UTC 24 August 2019
Temperature: 19.0°C (66°F)
Dewpoint: 14.0°C (57°F) [RH = 73%]
Pressure (altimeter): 30.24 inches Hg (1024.0 mb)
Winds: from the E (90 degrees) at 8 MPH (7 knots; 3.6 m/s)
Visibility: 6 or more miles (10+ km)
Ceiling: unknown
Clouds: missing
Weather: no significant weather observed at this time

METAR text: ETNT 240620Z 09005KT 9999 FEW280 17/14 Q1024 BLU+
Conditions at: ETNT (WITTMUNDHAVEN(GA, DE) observed 0620 UTC 24 August 2019
Temperature: 17.0°C (63°F)
Dewpoint: 14.0°C (57°F) [RH = 82%]
Pressure (altimeter): 30.24 inches Hg (1024.0 mb)
Winds: from the E (90 degrees) at 6 MPH (5 knots; 2.6 m/s)
Visibility: 6 or more miles (10+ km)
Ceiling: at least 12,000 feet AGL
Clouds: few clouds at 28000 feet AGL
Weather: no significant weather observed at this time

METAR text: ETNT 240520Z 07004KT 8000 MIFG FEW280 15/14 Q1024 BLU+
Conditions at: ETNT (WITTMUNDHAVEN(GA, DE) observed 0520 UTC 24 August 2019
Temperature: 15.0°C (59°F)
Dewpoint: 14.0°C (57°F) [RH = 94%]
Pressure (altimeter): 30.24 inches Hg (1024.0 mb)
Winds: from the ENE (70 degrees) at 5 MPH (4 knots; 2.1 m/s)
Visibility: 5 miles ( 8 km)
Ceiling: at least 12,000 feet AGL
Clouds: few clouds at 28000 feet AGL
Weather: MIFG  (shallow fog)

METAR text: ETNT 240420Z 08004KT 6000 R26/0450D MIFG SCT280 15/14 Q1024 WHT
Conditions at: ETNT (WITTMUNDHAVEN(GA, DE) observed 0420 UTC 24 August 2019
Temperature: 15.0°C (59°F)
Dewpoint: 14.0°C (57°F) [RH = 94%]
Pressure (altimeter): 30.24 inches Hg (1024.0 mb)
Winds: from the E (80 degrees) at 5 MPH (4 knots; 2.1 m/s)
Visibility: 4 miles ( 6 km)
Ceiling: at least 12,000 feet AGL
Clouds: scattered clouds at 28000 feet AGL
Weather: MIFG  (shallow fog)

METAR text: ETNT 240320Z 07004KT 6000 R26/0650D MIFG SCT290 15/14 Q1024 WHT
Conditions at: ETNT (WITTMUNDHAVEN(GA, DE) observed 0320 UTC 24 August 2019
Temperature: 15.0°C (59°F)
Dewpoint: 14.0°C (57°F) [RH = 94%]
Pressure (altimeter): 30.24 inches Hg (1024.0 mb)
Winds: from the ENE (70 degrees) at 5 MPH (4 knots; 2.1 m/s)
Visibility: 4 miles ( 6 km)
Ceiling: at least 12,000 feet AGL
Clouds: scattered clouds at 29000 feet AGL
Weather: MIFG  (shallow fog)

METAR text: ETNT 240220Z 08005KT 7000 MIFG SCT280 15/14 Q1024 WHT
Conditions at: ETNT (WITTMUNDHAVEN(GA, DE) observed 0220 UTC 24 August 2019
Temperature: 15.0°C (59°F)
Dewpoint: 14.0°C (57°F) [RH = 94%]
Pressure (altimeter): 30.24 inches Hg (1024.0 mb)
Winds: from the E (80 degrees) at 6 MPH (5 knots; 2.6 m/s)
Visibility: 4 miles ( 7 km)
Ceiling: at least 12,000 feet AGL
Clouds: scattered clouds at 28000 feet AGL
Weather: MIFG  (shallow fog)

METAR text: ETNT 240120Z 07004KT 9999 MIFG FEW290 15/15 Q1025 BLU+
Conditions at: ETNT (WITTMUNDHAVEN(GA, DE) observed 0120 UTC 24 August 2019
Temperature: 15.0°C (59°F)
Dewpoint: 15.0°C (59°F) [RH = 100%]
Pressure (altimeter): 30.27 inches Hg (1025.0 mb)
Winds: from the ENE (70 degrees) at 5 MPH (4 knots; 2.1 m/s)
Visibility: 6 or more miles (10+ km)
Ceiling: at least 12,000 feet AGL
Clouds: few clouds at 29000 feet AGL
Weather: MIFG  (shallow fog)

METAR text: ETNT 240020Z 07004KT 9999 MIFG FEW290 16/15 Q1025 BLU+
Conditions at: ETNT (WITTMUNDHAVEN(GA, DE) observed 0020 UTC 24 August 2019
Temperature: 16.0°C (61°F)
Dewpoint: 15.0°C (59°F) [RH = 94%]
Pressure (altimeter): 30.27 inches Hg (1025.0 mb)
Winds: from the ENE (70 degrees) at 5 MPH (4 knots; 2.1 m/s)
Visibility: 6 or more miles (10+ km)
Ceiling: at least 12,000 feet AGL
Clouds: few clouds at 29000 feet AGL
Weather: MIFG  (shallow fog)

METAR text: ETNT 232320Z 09002KT 9999 MIFG FEW290 16/15 Q1025 BLU+
Conditions at: ETNT (WITTMUNDHAVEN(GA, DE) observed 2320 UTC 23 August 2019
Temperature: 16.0°C (61°F)
Dewpoint: 15.0°C (59°F) [RH = 94%]
Pressure (altimeter): 30.27 inches Hg (1025.0 mb)
Winds: from the E (90 degrees) at 2 MPH (2 knots; 1.0 m/s)
Visibility: 6 or more miles (10+ km)
Ceiling: at least 12,000 feet AGL
Clouds: few clouds at 29000 feet AGL
Weather: MIFG  (shallow fog)

METAR text: ETNT 232220Z 09004KT 9999 FEW290 17/15 Q1025 BLU+
Conditions at: ETNT (WITTMUNDHAVEN(GA, DE) observed 2220 UTC 23 August 2019
Temperature: 17.0°C (63°F)
Dewpoint: 15.0°C (59°F) [RH = 88%]
Pressure (altimeter): 30.27 inches Hg (1025.0 mb)
Winds: from the E (90 degrees) at 5 MPH (4 knots; 2.1 m/s)
Visibility: 6 or more miles (10+ km)
Ceiling: at least 12,000 feet AGL
Clouds: few clouds at 29000 feet AGL
Weather: no significant weather observed at this time

METAR text: ETNT 232120Z 08004KT 9999 SCT290 17/15 Q1025 BLU+
Conditions at: ETNT (WITTMUNDHAVEN(GA, DE) observed 2120 UTC 23 August 2019
Temperature: 17.0°C (63°F)
Dewpoint: 15.0°C (59°F) [RH = 88%]
Pressure (altimeter): 30.27 inches Hg (1025.0 mb)
Winds: from the E (80 degrees) at 5 MPH (4 knots; 2.1 m/s)
Visibility: 6 or more miles (10+ km)
Ceiling: at least 12,000 feet AGL
Clouds: scattered clouds at 29000 feet AGL
Weather: no significant weather observed at this time

METAR text: ETNT 232020Z 06005KT 9999 BKN300 18/15 Q1025 BLU+
Conditions at: ETNT (WITTMUNDHAVEN(GA, DE) observed 2020 UTC 23 August 2019
Temperature: 18.0°C (64°F)
Dewpoint: 15.0°C (59°F) [RH = 83%]
Pressure (altimeter): 30.27 inches Hg (1025.0 mb)
Winds: from the ENE (60 degrees) at 6 MPH (5 knots; 2.6 m/s)
Visibility: 6 or more miles (10+ km)
Ceiling: 30000 feet AGL
Clouds: broken clouds at 30000 feet AGL
Weather: no significant weather observed at this time

METAR text: ETNT 231920Z 05005KT 9999 SCT320 18/15 Q1025 BLU+
Conditions at: ETNT (WITTMUNDHAVEN(GA, DE) observed 1920 UTC 23 August 2019
Temperature: 18.0°C (64°F)
Dewpoint: 15.0°C (59°F) [RH = 83%]
Pressure (altimeter): 30.27 inches Hg (1025.0 mb)
Winds: from the NE (50 degrees) at 6 MPH (5 knots; 2.6 m/s)
Visibility: 6 or more miles (10+ km)
Ceiling: at least 12,000 feet AGL
Clouds: scattered clouds at 32000 feet AGL
Weather: no significant weather observed at this time

METAR text: ETNT 231820Z 03004KT 9999 BKN280 20/15 Q1025 BLU+
Conditions at: ETNT (WITTMUNDHAVEN(GA, DE) observed 1820 UTC 23 August 2019
Temperature: 20.0°C (68°F)
Dewpoint: 15.0°C (59°F) [RH = 73%]
Pressure (altimeter): 30.27 inches Hg (1025.0 mb)
Winds: from the NNE (30 degrees) at 5 MPH (4 knots; 2.1 m/s)
Visibility: 6 or more miles (10+ km)
Ceiling: 28000 feet AGL
Clouds: broken clouds at 28000 feet AGL
Weather: no significant weather observed at this time

METAR text: ETNT 231720Z 02006KT 9999 BKN260 21/15 Q1025 BLU+
Conditions at: ETNT (WITTMUNDHAVEN(GA, DE) observed 1720 UTC 23 August 2019
Temperature: 21.0°C (70°F)
Dewpoint: 15.0°C (59°F) [RH = 69%]
Pressure (altimeter): 30.27 inches Hg (1025.0 mb)
Winds: from the NNE (20 degrees) at 7 MPH (6 knots; 3.1 m/s)
Visibility: 6 or more miles (10+ km)
Ceiling: 26000 feet AGL
Clouds: broken clouds at 26000 feet AGL
Weather: no significant weather observed at this time

METAR text: ETNT 231620Z 01008KT 9999 FEW040 BKN260 22/15 Q1025 BLU+
Conditions at: ETNT (WITTMUNDHAVEN(GA, DE) observed 1620 UTC 23 August 2019
Temperature: 22.0°C (72°F)
Dewpoint: 15.0°C (59°F) [RH = 65%]
Pressure (altimeter): 30.27 inches Hg (1025.0 mb)
Winds: from the N (10 degrees) at 9 MPH (8 knots; 4.1 m/s)
Visibility: 6 or more miles (10+ km)
Ceiling: 26000 feet AGL
Clouds: few clouds at 4000 feet AGL
broken clouds at 26000 feet AGL
Weather: no significant weather observed at this time

METAR text: ETNT 231520Z 01006KT 9999 SCT040 BKN260 23/16 Q1025 BLU+
Conditions at: ETNT (WITTMUNDHAVEN(GA, DE) observed 1520 UTC 23 August 2019
Temperature: 23.0°C (73°F)
Dewpoint: 16.0°C (61°F) [RH = 65%]
Pressure (altimeter): 30.27 inches Hg (1025.0 mb)
Winds: from the N (10 degrees) at 7 MPH (6 knots; 3.1 m/s)
Visibility: 6 or more miles (10+ km)
Ceiling: 26000 feet AGL
Clouds: scattered clouds at 4000 feet AGL
broken clouds at 26000 feet AGL
Weather: no significant weather observed at this time

METAR text: ETNT 231420Z 34004KT 9999 SCT040 BKN260 24/16 Q1025 BLU+
Conditions at: ETNT (WITTMUNDHAVEN(GA, DE) observed 1420 UTC 23 August 2019
Temperature: 24.0°C (75°F)
Dewpoint: 16.0°C (61°F) [RH = 61%]
Pressure (altimeter): 30.27 inches Hg (1025.0 mb)
Winds: from the NNW (340 degrees) at 5 MPH (4 knots; 2.1 m/s)
Visibility: 6 or more miles (10+ km)
Ceiling: 26000 feet AGL
Clouds: scattered clouds at 4000 feet AGL
broken clouds at 26000 feet AGL
Weather: no significant weather observed at this time

METAR text: ETNT 231320Z 31004KT 9999 SCT040 BKN260 24/14 Q1025 BLU+
Conditions at: ETNT (WITTMUNDHAVEN(GA, DE) observed 1320 UTC 23 August 2019
Temperature: 24.0°C (75°F)
Dewpoint: 14.0°C (57°F) [RH = 54%]
Pressure (altimeter): 30.27 inches Hg (1025.0 mb)
Winds: from the NW (310 degrees) at 5 MPH (4 knots; 2.1 m/s)
Visibility: 6 or more miles (10+ km)
Ceiling: 26000 feet AGL
Clouds: scattered clouds at 4000 feet AGL
broken clouds at 26000 feet AGL
Weather: no significant weather observed at this time

METAR text: ETNT 231220Z 23006KT 9999 SCT040 BKN260 24/14 Q1026 BLU+
Conditions at: ETNT (WITTMUNDHAVEN(GA, DE) observed 1220 UTC 23 August 2019
Temperature: 24.0°C (75°F)
Dewpoint: 14.0°C (57°F) [RH = 54%]
Pressure (altimeter): 30.30 inches Hg (1026.0 mb)
Winds: from the SW (230 degrees) at 7 MPH (6 knots; 3.1 m/s)
Visibility: 6 or more miles (10+ km)
Ceiling: 26000 feet AGL
Clouds: scattered clouds at 4000 feet AGL
broken clouds at 26000 feet AGL
Weather: no significant weather observed at this time

METAR text: ETNT 231120Z 24005KT 9999 FEW040 BKN260 23/13 Q1026 BLU+
Conditions at: ETNT (WITTMUNDHAVEN(GA, DE) observed 1120 UTC 23 August 2019
Temperature: 23.0°C (73°F)
Dewpoint: 13.0°C (55°F) [RH = 53%]
Pressure (altimeter): 30.30 inches Hg (1026.0 mb)
Winds: from the WSW (240 degrees) at 6 MPH (5 knots; 2.6 m/s)
Visibility: 6 or more miles (10+ km)
Ceiling: 26000 feet AGL
Clouds: few clouds at 4000 feet AGL
broken clouds at 26000 feet AGL
Weather: no significant weather observed at this time

METAR text: ETNT 231039Z 23006KT 9999 BKN260 23/14 Q1026 BLU+FCST CANCEL
Conditions at: ETNT (WITTMUNDHAVEN(GA, DE) observed 1039 UTC 23 August 2019
Temperature: 23.0°C (73°F)
Dewpoint: 14.0°C (57°F) [RH = 57%]
Pressure (altimeter): 30.30 inches Hg (1026.0 mb)
Winds: from the SW (230 degrees) at 7 MPH (6 knots; 3.1 m/s)
Visibility: 6 or more miles (10+ km)
Ceiling: 26000 feet AGL
Clouds: broken clouds at 26000 feet AGL
Weather: no significant weather observed at this time

METAR text: ETNT 231020Z 24006KT 9999 BKN260 22/14 Q1026 BLU+BLU+
Conditions at: ETNT (WITTMUNDHAVEN(GA, DE) observed 1020 UTC 23 August 2019
Temperature: 22.0°C (72°F)
Dewpoint: 14.0°C (57°F) [RH = 60%]
Pressure (altimeter): 30.30 inches Hg (1026.0 mb)
Winds: from the WSW (240 degrees) at 7 MPH (6 knots; 3.1 m/s)
Visibility: 6 or more miles (10+ km)
Ceiling: 26000 feet AGL
Clouds: broken clouds at 26000 feet AGL
Weather: no significant weather observed at this time

METAR text: ETNT 230920Z 23006KT 9999 BKN260 21/13 Q1026 BLU+BLU+
Conditions at: ETNT (WITTMUNDHAVEN(GA, DE) observed 0920 UTC 23 August 2019
Temperature: 21.0°C (70°F)
Dewpoint: 13.0°C (55°F) [RH = 60%]
Pressure (altimeter): 30.30 inches Hg (1026.0 mb)
Winds: from the SW (230 degrees) at 7 MPH (6 knots; 3.1 m/s)
Visibility: 6 or more miles (10+ km)
Ceiling: 26000 feet AGL
Clouds: broken clouds at 26000 feet AGL
Weather: no significant weather observed at this time

METAR text: ETNT 230820Z 22006KT 9999 BKN260 19/12 Q1026 BLU+BLU+
Conditions at: ETNT (WITTMUNDHAVEN(GA, DE) observed 0820 UTC 23 August 2019
Temperature: 19.0°C (66°F)
Dewpoint: 12.0°C (54°F) [RH = 64%]
Pressure (altimeter): 30.30 inches Hg (1026.0 mb)
Winds: from the SW (220 degrees) at 7 MPH (6 knots; 3.1 m/s)
Visibility: 6 or more miles (10+ km)
Ceiling: 26000 feet AGL
Clouds: broken clouds at 26000 feet AGL
Weather: no significant weather observed at this time

METAR text: ETNT 230720Z 23004KT 9999 BKN260 16/11 Q1026 BLU+BLU+
Conditions at: ETNT (WITTMUNDHAVEN(GA, DE) observed 0720 UTC 23 August 2019
Temperature: 16.0°C (61°F)
Dewpoint: 11.0°C (52°F) [RH = 72%]
Pressure (altimeter): 30.30 inches Hg (1026.0 mb)
Winds: from the SW (230 degrees) at 5 MPH (4 knots; 2.1 m/s)
Visibility: 6 or more miles (10+ km)
Ceiling: 26000 feet AGL
Clouds: broken clouds at 26000 feet AGL
Weather: no significant weather observed at this time

METAR text: ETNT 230620Z 21003KT 9999 BKN260 15/11 Q1025 BLU+BLU+
Conditions at: ETNT (WITTMUNDHAVEN(GA, DE) observed 0620 UTC 23 August 2019
Temperature: 15.0°C (59°F)
Dewpoint: 11.0°C (52°F) [RH = 77%]
Pressure (altimeter): 30.27 inches Hg (1025.0 mb)
Winds: from the SSW (210 degrees) at 3 MPH (3 knots; 1.5 m/s)
Visibility: 6 or more miles (10+ km)
Ceiling: 26000 feet AGL
Clouds: broken clouds at 26000 feet AGL
Weather: no significant weather observed at this time

METAR text: ETNT 230520Z 22002KT 9999 BKN300 12/09 Q1025 BLU+BLU+
Conditions at: ETNT (WITTMUNDHAVEN(GA, DE) observed 0520 UTC 23 August 2019
Temperature: 12.0°C (54°F)
Dewpoint: 9.0°C (48°F) [RH = 82%]
Pressure (altimeter): 30.27 inches Hg (1025.0 mb)
Winds: from the SW (220 degrees) at 2 MPH (2 knots; 1.0 m/s)
Visibility: 6 or more miles (10+ km)
Ceiling: 30000 feet AGL
Clouds: broken clouds at 30000 feet AGL
Weather: no significant weather observed at this time

METAR text: ETNT 230420Z 20004KT 9999 MIFG FEW300 12/09 Q1025 BLU+BLU+
Conditions at: ETNT (WITTMUNDHAVEN(GA, DE) observed 0420 UTC 23 August 2019
Temperature: 12.0°C (54°F)
Dewpoint: 9.0°C (48°F) [RH = 82%]
Pressure (altimeter): 30.27 inches Hg (1025.0 mb)
Winds: from the SSW (200 degrees) at 5 MPH (4 knots; 2.1 m/s)
Visibility: 6 or more miles (10+ km)
Ceiling: at least 12,000 feet AGL
Clouds: few clouds at 30000 feet AGL
Weather: MIFG  (shallow fog)

METAR text: ETNT 230320Z 21003KT 9999 MIFG FEW300 12/09 Q1025 BLU+
Conditions at: ETNT (WITTMUNDHAVEN(GA, DE) observed 0320 UTC 23 August 2019
Temperature: 12.0°C (54°F)
Dewpoint: 9.0°C (48°F) [RH = 82%]
Pressure (altimeter): 30.27 inches Hg (1025.0 mb)
Winds: from the SSW (210 degrees) at 3 MPH (3 knots; 1.5 m/s)
Visibility: 6 or more miles (10+ km)
Ceiling: at least 12,000 feet AGL
Clouds: few clouds at 30000 feet AGL
Weather: MIFG  (shallow fog)

Forecast for: ETNT (WITTMUNDHAVEN(GA, DE)
Text: TAF ETNT 241300Z 2414/2423 09007KT 9999 NSW SCT280 BY ETGL
Forecast period: 1400 to 2300 UTC 24 August 2019
Forecast type: FROM: standard forecast or significant change
Winds: from the E (90 degrees) at 8 MPH (7 knots; 3.6 m/s)
Visibility: 6 or more miles 10+ km)
Ceiling: at least 12,000 feet AGL
Clouds: scattered clouds at 28000 feet AGL
Weather: NSW  (no significant weather)